Time;durP1;ratioP1;P1;durP2;ratioP2;P2;SDS_P1;SDS_P2;PMS_P1;PMS_P2;Temp;Humidity;BMP_temperature;BMP_pressure;BME280_temperature;BME280_humidity;BME280_pressure;Samples;Min_cycle;Max_cycle;Signal;HPM_P1;HPM_P2
2024/03/09 00:00:19;;;;;;;50.57;26.37;;;;;;;;;;5062762;28;20198;-73
2024/03/09 00:02:46;;;;;;;52.57;26.47;;;;;;;;;;5062713;28;20185;-73
2024/03/09 00:05:12;;;;;;;53.30;28.57;;;;;;;;;;5068223;28;20287;-73
2024/03/09 00:07:38;;;;;;;51.00;28.30;;;;;;;;;;5067400;28;20185;-72
2024/03/09 00:10:07;;;;;;;53.70;26.90;;;;;;;;;;5062810;28;20193;-72
2024/03/09 00:12:33;;;;;;;54.90;27.77;;;;;;;;;;5064542;28;20188;-73
2024/03/09 00:15:01;;;;;;;56.20;28.07;;;;;;;;;;5070194;28;20192;-73
2024/03/09 00:17:27;;;;;;;49.40;26.83;;;;;;;;;;5070403;28;20634;-73
2024/03/09 00:19:52;;;;;;;52.73;26.50;;;;;;;;;;5059483;28;20208;-73
2024/03/09 00:22:19;;;;;;;54.13;27.63;;;;;;;;;;5066460;28;20539;-72
2024/03/09 00:24:45;;;;;;;59.60;28.90;;;;;;;;;;5066344;28;20603;-73
2024/03/09 00:27:14;;;;;;;54.73;27.63;;;;;;;;;;5071138;28;20335;-73
2024/03/09 00:29:40;;;;;;;56.60;28.87;;;;;;;;;;5074430;28;20195;-73
2024/03/09 00:32:05;;;;;;;57.30;27.77;;;;;;;;;;5075036;28;20185;-73
2024/03/09 00:34:32;;;;;;;57.03;28.27;;;;;;;;;;5072515;28;20271;-72
2024/03/09 00:36:58;;;;;;;57.87;27.80;;;;;;;;;;5073124;28;20193;-73
2024/03/09 00:39:23;;;;;;;50.50;27.10;;;;;;;;;;5070954;28;20279;-72
2024/03/09 00:41:49;;;;;;;55.20;27.33;;;;;;;;;;5068206;28;20185;-73
2024/03/09 00:44:14;;;;;;;52.60;27.03;;;;;;;;;;5060867;28;20209;-72
2024/03/09 00:46:40;;;;;;;55.77;26.80;;;;;;;;;;5060785;28;20589;-73
2024/03/09 00:49:05;;;;;;;56.67;28.17;;;;;;;;;;5065623;28;20207;-73
2024/03/09 00:51:31;;;;;;;59.57;29.37;;;;;;;;;;5068372;28;20233;-73
2024/03/09 00:53:57;;;;;;;61.07;28.87;;;;;;;;;;5066066;28;20224;-73
2024/03/09 00:56:23;;;;;;;57.10;26.93;;;;;;;;;;5061704;28;20284;-73
2024/03/09 00:58:49;;;;;;;51.43;27.03;;;;;;;;;;5060229;28;20220;-73
2024/03/09 01:01:14;;;;;;;59.87;28.40;;;;;;;;;;5061225;28;20196;-72
2024/03/09 01:03:40;;;;;;;58.47;27.53;;;;;;;;;;5065292;28;20562;-73
2024/03/09 01:06:06;;;;;;;58.03;27.87;;;;;;;;;;5063660;28;20569;-73
2024/03/09 01:08:34;;;;;;;59.00;28.33;;;;;;;;;;5058561;28;20264;-73
2024/03/09 01:10:59;;;;;;;52.63;28.03;;;;;;;;;;5057369;28;20197;-72
2024/03/09 01:13:25;;;;;;;56.87;28.07;;;;;;;;;;5061570;28;20251;-72
2024/03/09 01:15:51;;;;;;;58.47;28.83;;;;;;;;;;5061208;28;20268;-72
2024/03/09 01:18:17;;;;;;;59.00;28.73;;;;;;;;;;5067122;28;20193;-72
2024/03/09 01:20:43;;;;;;;57.70;27.63;;;;;;;;;;5066469;28;20181;-72
2024/03/09 01:23:09;;;;;;;59.77;28.80;;;;;;;;;;5062797;28;20188;-72
2024/03/09 01:25:35;;;;;;;60.53;28.63;;;;;;;;;;5060656;28;20213;-72
2024/03/09 01:28:00;;;;;;;57.83;28.93;;;;;;;;;;5065301;28;20674;-73
2024/03/09 01:30:25;;;;;;;55.47;28.03;;;;;;;;;;5063123;28;20250;-72
2024/03/09 01:32:51;;;;;;;61.00;27.60;;;;;;;;;;5063713;28;20181;-73
2024/03/09 01:35:16;;;;;;;65.43;28.13;;;;;;;;;;5065329;28;20217;-73
2024/03/09 01:37:42;;;;;;;57.87;28.40;;;;;;;;;;5064921;28;20192;-73
2024/03/09 01:40:10;;;;;;;56.50;29.03;;;;;;;;;;5069012;28;20593;-72
2024/03/09 01:42:35;;;;;;;56.80;27.90;;;;;;;;;;5066062;28;20197;-73
2024/03/09 01:45:05;;;;;;;58.40;27.77;;;;;;;;;;5069129;28;20700;-73
2024/03/09 01:47:32;;;;;;;56.37;27.20;;;;;;;;;;5051749;28;20275;-73
2024/03/09 01:49:58;;;;;;;56.50;28.00;;;;;;;;;;5062690;28;20262;-73
2024/03/09 01:52:26;;;;;;;61.07;29.00;;;;;;;;;;5056029;28;20256;-73
2024/03/09 01:54:53;;;;;;;58.83;27.30;;;;;;;;;;5065429;28;20186;-73
2024/03/09 01:57:19;;;;;;;59.23;29.20;;;;;;;;;;5039831;28;20191;-73
2024/03/09 01:59:49;;;;;;;63.23;28.23;;;;;;;;;;5063229;28;20561;-73
2024/03/09 02:02:15;;;;;;;58.63;28.63;;;;;;;;;;5054384;28;20268;-73
2024/03/09 02:04:42;;;;;;;54.30;27.37;;;;;;;;;;5062632;28;20295;-73
2024/03/09 02:07:07;;;;;;;60.50;28.53;;;;;;;;;;5062303;28;20727;-72
2024/03/09 02:09:34;;;;;;;59.00;28.97;;;;;;;;;;5060314;28;20212;-72
2024/03/09 02:12:05;;;;;;;50.90;26.63;;;;;;;;;;5062254;28;20287;-73
2024/03/09 02:14:33;;;;;;;57.80;28.20;;;;;;;;;;5065254;28;20191;-73
2024/03/09 02:16:58;;;;;;;58.30;27.23;;;;;;;;;;5068886;28;20181;-73
2024/03/09 02:19:26;;;;;;;59.33;27.80;;;;;;;;;;5059035;28;20209;-73
2024/03/09 02:21:52;;;;;;;55.93;27.57;;;;;;;;;;5056037;28;20185;-73
2024/03/09 02:24:21;;;;;;;57.10;28.30;;;;;;;;;;5067322;28;20213;-73
2024/03/09 02:26:47;;;;;;;55.07;26.40;;;;;;;;;;5060705;28;20672;-73
2024/03/09 02:29:13;;;;;;;55.67;26.33;;;;;;;;;;5068838;28;20196;-73
2024/03/09 02:31:38;;;;;;;57.73;28.07;;;;;;;;;;5059197;28;20239;-73
2024/03/09 02:34:04;;;;;;;56.37;27.37;;;;;;;;;;5060370;28;20240;-72
2024/03/09 02:36:31;;;;;;;56.37;27.80;;;;;;;;;;5058658;28;20290;-72
2024/03/09 02:38:59;;;;;;;57.67;27.20;;;;;;;;;;5064136;28;20224;-72
2024/03/09 02:41:25;;;;;;;56.60;27.00;;;;;;;;;;5064852;28;20248;-73
2024/03/09 02:43:53;;;;;;;54.33;27.20;;;;;;;;;;5059159;28;20209;-72
2024/03/09 02:46:21;;;;;;;58.50;28.40;;;;;;;;;;5065376;28;20276;-73
2024/03/09 02:48:48;;;;;;;59.13;27.67;;;;;;;;;;5064099;28;20184;-72
2024/03/09 02:51:16;;;;;;;58.13;28.77;;;;;;;;;;5053265;28;20189;-72
2024/03/09 02:53:42;;;;;;;56.00;28.23;;;;;;;;;;5051810;28;20212;-72
2024/03/09 02:56:18;;;;;;;61.83;28.03;;;;;;;;;;5063840;28;20188;-72
2024/03/09 02:58:44;;;;;;;65.30;28.80;;;;;;;;;;5061071;28;20238;-72
2024/03/09 03:01:11;;;;;;;59.33;28.93;;;;;;;;;;5057412;28;20185;-73
2024/03/09 03:03:59;;;;;;;56.73;28.00;;;;;;;;;;5065978;28;20196;-73
2024/03/09 03:06:27;;;;;;;56.93;27.80;;;;;;;;;;5054938;28;20197;-73
2024/03/09 03:08:57;;;;;;;60.17;27.80;;;;;;;;;;5072505;28;20189;-73
2024/03/09 03:11:23;;;;;;;59.13;27.57;;;;;;;;;;5061431;28;20683;-73
2024/03/09 03:13:51;;;;;;;57.73;28.87;;;;;;;;;;5064688;28;20260;-72
2024/03/09 03:16:28;;;;;;;61.37;28.30;;;;;;;;;;5059890;28;20221;-73
2024/03/09 03:18:58;;;;;;;56.57;26.83;;;;;;;;;;5066545;28;20204;-73
2024/03/09 03:21:24;;;;;;;62.57;27.60;;;;;;;;;;5062789;28;20720;-73
2024/03/09 03:23:50;;;;;;;54.43;26.17;;;;;;;;;;5053217;28;20216;-73
2024/03/09 03:26:16;;;;;;;56.97;27.30;;;;;;;;;;5082391;28;20189;-73
2024/03/09 03:28:47;;;;;;;57.30;27.30;;;;;;;;;;5045343;28;20190;-73
2024/03/09 03:31:13;;;;;;;60.83;27.93;;;;;;;;;;5067040;28;20267;-72
2024/03/09 03:33:39;;;;;;;57.23;29.13;;;;;;;;;;5062491;28;20193;-72
2024/03/09 03:36:08;;;;;;;57.00;27.53;;;;;;;;;;5064868;28;20247;-73
2024/03/09 03:38:37;;;;;;;55.93;26.90;;;;;;;;;;5059216;28;20193;-72
2024/03/09 03:41:08;;;;;;;56.77;27.47;;;;;;;;;;5064494;28;20188;-73
2024/03/09 03:43:37;;;;;;;58.27;26.43;;;;;;;;;;5066589;28;20192;-73
2024/03/09 03:46:05;;;;;;;51.07;25.73;;;;;;;;;;5063071;28;20185;-73
2024/03/09 03:48:31;;;;;;;58.03;26.70;;;;;;;;;;5067286;28;20224;-73
2024/03/09 03:50:58;;;;;;;55.80;27.80;;;;;;;;;;5058412;28;20263;-73
2024/03/09 03:53:24;;;;;;;58.27;27.50;;;;;;;;;;5064730;28;20205;-73
2024/03/09 03:55:51;;;;;;;59.43;26.23;;;;;;;;;;5061105;28;20212;-72
2024/03/09 03:58:19;;;;;;;59.17;26.80;;;;;;;;;;5060333;28;20262;-72
2024/03/09 04:00:47;;;;;;;55.43;26.77;;;;;;;;;;5064263;28;20623;-72
2024/03/09 04:03:16;;;;;;;60.43;27.83;;;;;;;;;;5067098;28;20529;-73
2024/03/09 04:05:45;;;;;;;55.53;27.03;;;;;;;;;;5065479;28;20224;-73
2024/03/09 04:08:11;;;;;;;54.80;25.83;;;;;;;;;;5069615;28;20199;-73
2024/03/09 04:10:37;;;;;;;57.07;27.37;;;;;;;;;;5056809;28;20186;-73
2024/03/09 04:13:05;;;;;;;60.03;26.97;;;;;;;;;;5057363;28;20193;-73
2024/03/09 04:15:32;;;;;;;55.80;26.57;;;;;;;;;;5064012;28;20193;-73
2024/03/09 04:18:02;;;;;;;59.33;26.83;;;;;;;;;;5065501;28;20570;-73
2024/03/09 04:20:31;;;;;;;57.00;25.73;;;;;;;;;;5067229;28;20271;-73
2024/03/09 04:22:57;;;;;;;57.37;27.87;;;;;;;;;;5063299;28;20193;-73
2024/03/09 04:25:22;;;;;;;60.00;26.87;;;;;;;;;;5068800;28;20216;-73
2024/03/09 04:27:50;;;;;;;56.40;26.03;;;;;;;;;;5064644;28;20621;-72
2024/03/09 04:30:16;;;;;;;55.93;27.30;;;;;;;;;;5053809;28;20679;-73
2024/03/09 04:32:42;;;;;;;55.17;26.40;;;;;;;;;;5069067;28;20189;-73
2024/03/09 04:35:07;;;;;;;55.30;26.27;;;;;;;;;;5069758;28;20232;-72
2024/03/09 04:37:34;;;;;;;57.43;26.13;;;;;;;;;;5069544;28;20529;-72
2024/03/09 04:40:00;;;;;;;61.43;27.27;;;;;;;;;;5062311;28;20274;-72
2024/03/09 04:42:26;;;;;;;57.63;27.63;;;;;;;;;;5061798;28;20193;-73
2024/03/09 04:44:52;;;;;;;53.47;26.07;;;;;;;;;;5062829;28;20220;-73
2024/03/09 04:47:20;;;;;;;60.20;25.83;;;;;;;;;;5060014;28;20192;-72
2024/03/09 04:49:47;;;;;;;54.33;25.57;;;;;;;;;;5062030;28;20184;-72
2024/03/09 04:52:13;;;;;;;55.50;26.70;;;;;;;;;;5063162;28;20217;-72
2024/03/09 04:54:43;;;;;;;56.70;27.03;;;;;;;;;;5044491;28;20543;-72
2024/03/09 04:57:11;;;;;;;51.67;25.60;;;;;;;;;;5068267;28;20189;-73
2024/03/09 04:59:39;;;;;;;64.00;27.83;;;;;;;;;;5063754;28;20601;-73
2024/03/09 05:02:05;;;;;;;54.07;26.10;;;;;;;;;;5070664;28;20242;-73
2024/03/09 05:04:30;;;;;;;55.57;26.67;;;;;;;;;;5058196;28;20213;-72
2024/03/09 05:06:56;;;;;;;55.97;25.07;;;;;;;;;;5057037;28;20188;-72
2024/03/09 05:09:23;;;;;;;59.17;27.30;;;;;;;;;;5066652;28;20283;-73
2024/03/09 05:11:49;;;;;;;63.47;28.20;;;;;;;;;;5049168;28;20192;-72
2024/03/09 05:14:15;;;;;;;53.73;25.63;;;;;;;;;;5063960;28;20180;-72
2024/03/09 05:16:43;;;;;;;56.80;26.47;;;;;;;;;;5060440;28;20668;-72
2024/03/09 05:19:09;;;;;;;55.93;25.77;;;;;;;;;;5065112;28;20216;-72
2024/03/09 05:21:36;;;;;;;58.63;28.33;;;;;;;;;;5067898;28;20203;-72
2024/03/09 05:24:03;;;;;;;55.17;25.97;;;;;;;;;;5058231;28;20647;-72
2024/03/09 05:26:32;;;;;;;60.87;26.83;;;;;;;;;;5064010;28;20524;-72
2024/03/09 05:29:01;;;;;;;54.57;26.07;;;;;;;;;;5063777;28;20208;-72
2024/03/09 05:31:27;;;;;;;60.00;26.13;;;;;;;;;;5062892;28;20213;-72
2024/03/09 05:33:53;;;;;;;64.87;27.23;;;;;;;;;;5062401;28;20202;-72
2024/03/09 05:36:19;;;;;;;59.07;26.03;;;;;;;;;;5069476;28;20254;-72
2024/03/09 05:38:48;;;;;;;59.83;27.97;;;;;;;;;;5066154;28;20189;-72
2024/03/09 05:41:13;;;;;;;58.53;26.40;;;;;;;;;;5043425;28;20186;-73
2024/03/09 05:43:39;;;;;;;53.33;25.33;;;;;;;;;;5060005;28;20191;-73
2024/03/09 05:46:07;;;;;;;54.53;26.60;;;;;;;;;;5065111;28;20219;-73
2024/03/09 05:48:33;;;;;;;55.10;25.93;;;;;;;;;;5064605;28;20268;-72
2024/03/09 05:50:58;;;;;;;52.37;25.43;;;;;;;;;;5058456;28;20267;-72
2024/03/09 05:53:26;;;;;;;55.80;26.20;;;;;;;;;;5062531;28;20197;-73
2024/03/09 05:55:52;;;;;;;62.20;27.87;;;;;;;;;;5068281;28;20594;-72
2024/03/09 05:58:22;;;;;;;60.63;26.50;;;;;;;;;;5066028;28;20234;-72
2024/03/09 06:00:48;;;;;;;55.03;26.60;;;;;;;;;;5063450;28;20185;-72
2024/03/09 06:03:13;;;;;;;58.00;26.53;;;;;;;;;;5066247;28;20682;-73
2024/03/09 06:05:41;;;;;;;53.57;25.43;;;;;;;;;;5053662;28;20513;-73
2024/03/09 06:08:07;;;;;;;55.13;26.97;;;;;;;;;;5064415;28;20244;-72
2024/03/09 06:10:33;;;;;;;57.73;26.87;;;;;;;;;;5064693;28;20293;-72
2024/03/09 06:12:58;;;;;;;57.13;26.40;;;;;;;;;;5066594;28;20189;-73
2024/03/09 06:15:24;;;;;;;58.73;26.53;;;;;;;;;;5064287;28;20229;-73
2024/03/09 06:17:55;;;;;;;53.47;26.07;;;;;;;;;;5062923;28;20189;-73
2024/03/09 06:20:21;;;;;;;54.97;26.20;;;;;;;;;;5058804;28;20212;-73
2024/03/09 06:22:47;;;;;;;55.93;26.60;;;;;;;;;;5067116;28;20505;-72
2024/03/09 06:25:22;;;;;;;54.13;25.53;;;;;;;;;;5062747;28;20288;-72
2024/03/09 06:27:48;;;;;;;57.50;27.37;;;;;;;;;;5060335;28;20216;-73
2024/03/09 06:30:15;;;;;;;58.20;26.43;;;;;;;;;;5064568;28;20195;-73
2024/03/09 06:32:42;;;;;;;59.30;27.10;;;;;;;;;;5063124;28;20195;-73
2024/03/09 06:35:08;;;;;;;57.17;26.57;;;;;;;;;;5062912;28;20217;-73
2024/03/09 06:37:33;;;;;;;54.63;25.90;;;;;;;;;;5068969;28;20267;-73
2024/03/09 06:40:00;;;;;;;51.37;25.10;;;;;;;;;;5056552;28;20216;-73
2024/03/09 06:42:26;;;;;;;53.40;25.87;;;;;;;;;;5062252;28;20275;-73
2024/03/09 06:44:51;;;;;;;60.00;26.80;;;;;;;;;;5057506;28;20379;-73
2024/03/09 06:47:17;;;;;;;59.07;25.50;;;;;;;;;;5056687;28;20224;-73
2024/03/09 06:49:42;;;;;;;58.50;25.77;;;;;;;;;;5068077;28;20195;-73
2024/03/09 06:52:08;;;;;;;56.30;26.77;;;;;;;;;;5057202;28;20181;-73
2024/03/09 06:54:33;;;;;;;51.80;25.90;;;;;;;;;;5064764;28;20735;-73
2024/03/09 06:56:59;;;;;;;53.60;26.07;;;;;;;;;;5058944;28;20661;-73
2024/03/09 06:59:24;;;;;;;54.17;25.80;;;;;;;;;;5044111;28;20192;-73
2024/03/09 07:01:57;;;;;;;56.80;27.50;;;;;;;;;;5059271;28;20200;-74
2024/03/09 07:04:24;;;;;;;53.53;26.50;;;;;;;;;;5064736;28;20707;-72
2024/03/09 07:06:50;;;;;;;54.27;26.80;;;;;;;;;;5063241;28;20189;-72
2024/03/09 07:09:17;;;;;;;55.37;26.57;;;;;;;;;;5071412;28;20693;-74
2024/03/09 07:11:42;;;;;;;49.10;24.90;;;;;;;;;;5060786;28;20195;-74
2024/03/09 07:14:07;;;;;;;50.77;26.20;;;;;;;;;;5065339;28;20223;-73
2024/03/09 07:16:33;;;;;;;48.83;25.80;;;;;;;;;;5062457;28;20196;-73
2024/03/09 07:18:59;;;;;;;50.03;25.37;;;;;;;;;;5066699;28;20277;-73
2024/03/09 07:21:25;;;;;;;50.90;26.50;;;;;;;;;;5066756;28;20288;-73
2024/03/09 07:23:51;;;;;;;45.43;25.50;;;;;;;;;;5067397;28;20192;-73
2024/03/09 07:26:17;;;;;;;48.83;25.53;;;;;;;;;;5072958;28;20185;-73
2024/03/09 07:28:43;;;;;;;43.43;24.50;;;;;;;;;;5069073;28;20189;-73
2024/03/09 07:31:09;;;;;;;43.50;24.87;;;;;;;;;;5070093;28;20185;-74
2024/03/09 07:33:35;;;;;;;44.43;24.40;;;;;;;;;;5069507;28;20211;-73
2024/03/09 07:36:01;;;;;;;45.83;24.40;;;;;;;;;;5064348;28;20260;-73
2024/03/09 07:38:27;;;;;;;45.93;24.37;;;;;;;;;;5063618;28;20192;-73
2024/03/09 07:40:53;;;;;;;48.17;24.97;;;;;;;;;;5061958;28;20189;-73
2024/03/09 07:43:20;;;;;;;43.23;24.43;;;;;;;;;;5069522;28;20605;-72
2024/03/09 07:45:48;;;;;;;41.23;22.83;;;;;;;;;;5063649;28;20213;-73
2024/03/09 07:48:14;;;;;;;44.00;24.37;;;;;;;;;;5068273;28;20209;-73
2024/03/09 07:50:40;;;;;;;40.30;23.57;;;;;;;;;;5064243;28;20608;-73
2024/03/09 07:53:06;;;;;;;40.53;23.27;;;;;;;;;;5067579;28;20265;-73
2024/03/09 07:55:32;;;;;;;44.17;21.83;;;;;;;;;;5063882;28;20181;-73
2024/03/09 07:57:58;;;;;;;41.40;22.93;;;;;;;;;;5057779;28;20535;-73
2024/03/09 08:00:27;;;;;;;38.57;22.33;;;;;;;;;;5058805;28;20276;-73
2024/03/09 08:02:54;;;;;;;39.67;22.17;;;;;;;;;;5062312;28;20557;-73
2024/03/09 08:05:22;;;;;;;38.90;22.47;;;;;;;;;;5065747;28;20192;-72
2024/03/09 08:07:48;;;;;;;37.67;21.70;;;;;;;;;;5063262;28;20188;-73
2024/03/09 08:10:18;;;;;;;38.50;21.60;;;;;;;;;;5063717;28;20293;-73
2024/03/09 08:12:44;;;;;;;36.60;22.47;;;;;;;;;;5066197;28;20230;-72
2024/03/09 08:15:12;;;;;;;36.50;21.80;;;;;;;;;;5068087;28;20279;-72
2024/03/09 08:17:38;;;;;;;43.60;24.03;;;;;;;;;;5065290;28;20209;-72
2024/03/09 08:20:06;;;;;;;45.03;24.47;;;;;;;;;;5058034;28;20212;-72
2024/03/09 08:22:41;;;;;;;41.07;24.53;;;;;;;;;;5066154;28;20192;-72
2024/03/09 08:25:09;;;;;;;37.63;22.27;;;;;;;;;;5063656;28;20216;-72
2024/03/09 08:27:35;;;;;;;42.03;23.03;;;;;;;;;;5070612;28;20833;-72
2024/03/09 08:30:03;;;;;;;38.97;21.40;;;;;;;;;;5062564;28;20277;-72
2024/03/09 08:32:29;;;;;;;36.83;22.07;;;;;;;;;;5059999;28;20323;-71
2024/03/09 08:34:55;;;;;;;36.17;21.20;;;;;;;;;;5065229;28;20231;-72
2024/03/09 08:37:20;;;;;;;31.40;19.23;;;;;;;;;;5064333;28;20271;-72
2024/03/09 08:39:45;;;;;;;36.27;21.33;;;;;;;;;;5066391;28;20241;-70
2024/03/09 08:42:11;;;;;;;34.03;20.60;;;;;;;;;;5066671;28;20185;-72
2024/03/09 08:44:38;;;;;;;30.57;18.80;;;;;;;;;;5065966;28;20209;-72
2024/03/09 08:47:03;;;;;;;33.80;19.87;;;;;;;;;;5063772;28;20196;-72
2024/03/09 08:49:30;;;;;;;31.50;18.37;;;;;;;;;;5072645;28;20661;-72
2024/03/09 08:51:57;;;;;;;29.80;18.20;;;;;;;;;;5066920;28;20185;-71
2024/03/09 08:54:22;;;;;;;28.23;17.30;;;;;;;;;;5060598;28;20533;-72
2024/03/09 08:56:52;;;;;;;27.90;17.17;;;;;;;;;;5051311;28;20283;-71
2024/03/09 08:59:17;;;;;;;28.47;17.47;;;;;;;;;;5067161;28;20284;-72
2024/03/09 09:01:43;;;;;;;28.30;16.43;;;;;;;;;;5057694;28;20192;-72
2024/03/09 09:04:08;;;;;;;25.83;16.27;;;;;;;;;;5068063;28;20538;-73
2024/03/09 09:06:34;;;;;;;25.50;15.88;;;;;;;;;;5062924;28;20178;-72
2024/03/09 09:09:00;;;;;;;27.87;16.13;;;;;;;;;;5064614;28;20192;-73
2024/03/09 09:11:28;;;;;;;27.00;17.23;;;;;;;;;;5065383;28;20178;-72
2024/03/09 09:13:54;;;;;;;26.75;16.08;;;;;;;;;;5048094;28;20248;-72
2024/03/09 09:16:20;;;;;;;25.80;16.90;;;;;;;;;;5068692;28;20265;-72
2024/03/09 09:18:45;;;;;;;29.60;17.50;;;;;;;;;;5068850;28;20204;-72
2024/03/09 09:21:11;;;;;;;25.85;16.10;;;;;;;;;;5062146;28;20216;-72
2024/03/09 09:23:36;;;;;;;28.88;17.25;;;;;;;;;;5072111;28;20794;-71
2024/03/09 09:26:01;;;;;;;28.13;16.50;;;;;;;;;;5066487;28;20216;-71
2024/03/09 09:28:28;;;;;;;28.17;16.83;;;;;;;;;;5069330;28;20188;-72
2024/03/09 09:30:54;;;;;;;29.77;17.98;;;;;;;;;;5061485;28;20634;-72
2024/03/09 09:33:19;;;;;;;27.92;17.00;;;;;;;;;;5067177;28;20207;-72
2024/03/09 09:35:46;;;;;;;26.88;17.15;;;;;;;;;;5069699;28;20232;-72
2024/03/09 09:38:17;;;;;;;27.10;16.45;;;;;;;;;;5083577;28;20218;-72
2024/03/09 09:40:57;;;;;;;25.80;16.20;;;;;;;;;;5069234;28;20648;-72
2024/03/09 09:43:27;;;;;;;24.98;16.08;;;;;;;;;;5057088;28;20530;-72
2024/03/09 09:45:57;;;;;;;27.77;17.00;;;;;;;;;;5066963;28;20262;-72
2024/03/09 09:48:24;;;;;;;27.02;17.10;;;;;;;;;;5065299;28;20250;-72
2024/03/09 09:50:50;;;;;;;27.77;16.63;;;;;;;;;;5059832;28;20591;-72
2024/03/09 09:53:18;;;;;;;24.45;15.73;;;;;;;;;;5059886;28;20285;-71
2024/03/09 09:55:46;;;;;;;24.45;15.88;;;;;;;;;;5051994;28;20228;-71
2024/03/09 09:58:12;;;;;;;24.73;16.42;;;;;;;;;;5064059;28;20185;-72
2024/03/09 10:00:38;;;;;;;26.27;16.02;;;;;;;;;;5065938;28;20623;-72
2024/03/09 10:03:04;;;;;;;28.88;16.50;;;;;;;;;;5061431;28;20563;-72
2024/03/09 10:05:31;;;;;;;26.10;16.67;;;;;;;;;;5066766;28;20273;-72
2024/03/09 10:08:06;;;;;;;24.10;16.10;;;;;;;;;;5066728;28;20189;-72
2024/03/09 10:10:38;;;;;;;27.10;16.52;;;;;;;;;;5071369;28;20188;-73
2024/03/09 10:13:16;;;;;;;25.35;16.08;;;;;;;;;;5066637;28;20550;-72
2024/03/09 10:15:51;;;;;;;25.88;16.98;;;;;;;;;;5065359;28;20185;-73
2024/03/09 10:18:16;;;;;;;28.98;16.40;;;;;;;;;;5060506;28;20223;-74
2024/03/09 10:20:42;;;;;;;27.05;17.33;;;;;;;;;;5041594;28;20213;-71
2024/03/09 10:23:12;;;;;;;26.30;16.88;;;;;;;;;;5064630;28;20610;-73
2024/03/09 10:25:38;;;;;;;25.83;16.33;;;;;;;;;;5060819;28;20238;-72
2024/03/09 10:28:06;;;;;;;26.52;17.23;;;;;;;;;;5056310;28;20633;-73
2024/03/09 10:30:33;;;;;;;27.85;17.60;;;;;;;;;;5049586;28;20263;-73
2024/03/09 10:32:58;;;;;;;27.80;15.63;;;;;;;;;;5053712;28;20709;-73
2024/03/09 10:35:25;;;;;;;24.48;15.70;;;;;;;;;;5057479;28;20307;-73
2024/03/09 10:37:58;;;;;;;25.60;16.05;;;;;;;;;;5058389;28;20199;-74
2024/03/09 10:40:25;;;;;;;27.95;16.65;;;;;;;;;;5061202;28;20188;-73
2024/03/09 10:42:53;;;;;;;24.38;15.38;;;;;;;;;;5058594;28;20192;-73
2024/03/09 10:45:21;;;;;;;24.20;15.45;;;;;;;;;;5069049;28;20324;-73
2024/03/09 10:47:55;;;;;;;23.70;16.13;;;;;;;;;;5062805;28;20184;-74
2024/03/09 10:50:25;;;;;;;24.95;16.42;;;;;;;;;;5055338;28;20196;-73
2024/03/09 10:53:09;;;;;;;24.13;15.70;;;;;;;;;;5065384;28;20188;-73
2024/03/09 10:56:04;;;;;;;24.48;15.82;;;;;;;;;;5063616;28;20556;-74
2024/03/09 10:58:32;;;;;;;25.80;16.40;;;;;;;;;;5062841;28;20189;-73
2024/03/09 11:00:58;;;;;;;24.55;15.98;;;;;;;;;;5075056;28;20217;-74
2024/03/09 11:03:26;;;;;;;25.90;16.35;;;;;;;;;;5066609;28;20234;-73
2024/03/09 11:05:53;;;;;;;24.25;15.40;;;;;;;;;;5058561;28;20300;-73
2024/03/09 11:08:22;;;;;;;25.40;15.63;;;;;;;;;;5067373;28;20227;-73
2024/03/09 11:10:48;;;;;;;24.90;16.10;;;;;;;;;;5064887;28;20686;-73
2024/03/09 11:13:18;;;;;;;25.50;16.65;;;;;;;;;;5061338;28;20272;-73
2024/03/09 11:15:49;;;;;;;23.13;15.80;;;;;;;;;;5070793;28;20251;-73
2024/03/09 11:18:15;;;;;;;23.80;16.38;;;;;;;;;;5061687;28;20196;-73
2024/03/09 11:21:07;;;;;;;26.88;18.33;;;;;;;;;;5064726;28;20189;-73
2024/03/09 11:23:33;;;;;;;25.98;17.08;;;;;;;;;;5060690;28;20287;-73
2024/03/09 11:26:00;;;;;;;21.70;14.85;;;;;;;;;;5066911;28;20610;-72
2024/03/09 11:28:32;;;;;;;23.38;15.73;;;;;;;;;;5066817;28;20284;-73
2024/03/09 11:31:26;;;;;;;24.30;15.20;;;;;;;;;;5066699;28;20280;-73
2024/03/09 11:33:44;;;;;;;21.33;14.43;;;;;;;;;;5060254;28;20196;-72
2024/03/09 11:36:50;;;;;;;23.65;14.95;;;;;;;;;;5066586;28;20582;-74
2024/03/09 11:39:20;;;;;;;22.30;14.88;;;;;;;;;;5054648;28;20188;-73
2024/03/09 11:41:47;;;;;;;21.05;14.57;;;;;;;;;;5068231;28;20242;-72
2024/03/09 11:44:22;;;;;;;23.27;14.95;;;;;;;;;;5067988;28;20679;-73
2024/03/09 11:46:48;;;;;;;24.55;15.32;;;;;;;;;;5069285;28;20201;-73
2024/03/09 11:49:14;;;;;;;20.88;14.32;;;;;;;;;;5064264;28;20233;-73
2024/03/09 11:51:40;;;;;;;21.48;14.63;;;;;;;;;;5077487;28;20181;-72
2024/03/09 11:54:13;;;;;;;24.13;15.13;;;;;;;;;;5078212;28;20271;-73
2024/03/09 11:56:40;;;;;;;22.40;14.30;;;;;;;;;;5061508;28;20250;-72
2024/03/09 11:59:10;;;;;;;20.98;14.18;;;;;;;;;;5065080;28;20657;-72
2024/03/09 12:01:40;;;;;;;21.95;14.63;;;;;;;;;;5071984;28;20543;-72
2024/03/09 12:04:07;;;;;;;24.27;15.80;;;;;;;;;;5081095;28;20199;-72
2024/03/09 12:06:33;;;;;;;22.02;14.52;;;;;;;;;;5068395;28;20192;-73
2024/03/09 12:08:59;;;;;;;21.50;14.35;;;;;;;;;;5063113;28;20203;-72
2024/03/09 12:11:31;;;;;;;21.50;14.52;;;;;;;;;;5072601;28;20197;-72
2024/03/09 12:13:57;;;;;;;26.95;15.77;;;;;;;;;;5062013;28;20194;-72
2024/03/09 12:16:27;;;;;;;20.13;14.05;;;;;;;;;;5065925;28;20181;-72
2024/03/09 12:18:54;;;;;;;22.90;14.70;;;;;;;;;;5061718;28;20217;-73
2024/03/09 12:21:22;;;;;;;20.40;14.45;;;;;;;;;;5069298;28;20496;-73
2024/03/09 12:23:54;;;;;;;23.80;15.23;;;;;;;;;;5067345;28;20667;-72
2024/03/09 12:26:21;;;;;;;22.45;14.13;;;;;;;;;;5060916;28;20181;-73
2024/03/09 12:28:47;;;;;;;22.95;15.32;;;;;;;;;;5064211;28;20268;-73
2024/03/09 12:31:13;;;;;;;23.30;15.23;;;;;;;;;;5051128;28;20221;-73
2024/03/09 12:33:40;;;;;;;21.42;15.00;;;;;;;;;;5067088;28;20212;-72
2024/03/09 12:36:10;;;;;;;24.00;14.70;;;;;;;;;;5015655;28;1154641;-71
2024/03/09 12:38:39;;;;;;;20.70;14.20;;;;;;;;;;5066179;28;20279;-73
2024/03/09 12:41:26;;;;;;;22.17;14.35;;;;;;;;;;5066335;28;20223;-73
2024/03/09 12:43:52;;;;;;;19.85;13.45;;;;;;;;;;5053158;28;20708;-73
2024/03/09 12:46:18;;;;;;;21.08;14.30;;;;;;;;;;5064776;28;20189;-72
2024/03/09 12:48:44;;;;;;;20.50;14.50;;;;;;;;;;5059338;28;20317;-73
2024/03/09 12:51:13;;;;;;;20.23;13.85;;;;;;;;;;5066043;28;20261;-73
2024/03/09 12:53:38;;;;;;;20.08;14.15;;;;;;;;;;5068255;28;20187;-73
2024/03/09 12:56:05;;;;;;;21.67;14.32;;;;;;;;;;5065681;28;20193;-72
2024/03/09 12:58:31;;;;;;;23.33;14.80;;;;;;;;;;5065249;28;20547;-73
2024/03/09 13:00:57;;;;;;;22.63;14.93;;;;;;;;;;5068317;28;20271;-72
2024/03/09 13:03:24;;;;;;;23.95;15.10;;;;;;;;;;5067776;28;20660;-73
2024/03/09 13:05:50;;;;;;;21.92;13.95;;;;;;;;;;5065190;28;20209;-74
2024/03/09 13:08:26;;;;;;;20.50;13.27;;;;;;;;;;5071454;28;20196;-72
2024/03/09 13:10:52;;;;;;;18.48;13.55;;;;;;;;;;5068771;28;20677;-73
2024/03/09 13:13:19;;;;;;;20.65;13.32;;;;;;;;;;5068165;28;20189;-73
2024/03/09 13:15:45;;;;;;;19.85;13.80;;;;;;;;;;5053764;28;20319;-73
2024/03/09 13:18:11;;;;;;;21.10;14.00;;;;;;;;;;5066773;28;20262;-72
2024/03/09 13:20:41;;;;;;;18.35;12.73;;;;;;;;;;5072506;28;20187;-72
2024/03/09 13:23:13;;;;;;;22.98;14.07;;;;;;;;;;5060485;28;20200;-73
2024/03/09 13:25:39;;;;;;;22.30;13.82;;;;;;;;;;5062090;28;20335;-74
2024/03/09 13:28:06;;;;;;;19.00;12.80;;;;;;;;;;5061650;28;20494;-73
2024/03/09 13:30:35;;;;;;;21.05;13.43;;;;;;;;;;5055585;28;20197;-73
2024/03/09 13:33:01;;;;;;;21.23;14.32;;;;;;;;;;5040112;28;20276;-73
2024/03/09 13:35:27;;;;;;;20.65;13.55;;;;;;;;;;5067941;28;20692;-72
2024/03/09 13:37:52;;;;;;;20.75;14.50;;;;;;;;;;5045666;28;20275;-72
2024/03/09 13:40:26;;;;;;;21.48;15.00;;;;;;;;;;5077192;28;20187;-72
2024/03/09 13:42:55;;;;;;;24.25;14.68;;;;;;;;;;5068195;28;20235;-72
2024/03/09 13:45:24;;;;;;;23.60;15.32;;;;;;;;;;5070026;28;20291;-72
2024/03/09 13:47:50;;;;;;;23.08;14.43;;;;;;;;;;5064135;28;20185;-72
2024/03/09 13:50:20;;;;;;;25.80;13.55;;;;;;;;;;5073313;28;20219;-73
2024/03/09 13:52:49;;;;;;;23.00;14.20;;;;;;;;;;5050767;28;20205;-72
2024/03/09 13:55:16;;;;;;;21.67;13.45;;;;;;;;;;5053743;28;20177;-72
2024/03/09 13:57:45;;;;;;;20.38;13.95;;;;;;;;;;5053128;28;20265;-72
2024/03/09 14:00:19;;;;;;;18.15;13.00;;;;;;;;;;5049616;28;20184;-72
2024/03/09 14:02:49;;;;;;;21.60;14.13;;;;;;;;;;5068285;28;20237;-73
2024/03/09 14:05:21;;;;;;;27.30;16.88;;;;;;;;;;5069353;28;20208;-72
2024/03/09 14:07:52;;;;;;;23.40;14.43;;;;;;;;;;5056935;28;20614;-72
2024/03/09 14:10:19;;;;;;;23.73;14.60;;;;;;;;;;5053909;28;20189;-72
2024/03/09 14:12:47;;;;;;;22.63;14.48;;;;;;;;;;5071143;28;20261;-72
2024/03/09 14:15:21;;;;;;;20.77;13.95;;;;;;;;;;5064578;28;20545;-72
2024/03/09 14:17:49;;;;;;;22.80;14.68;;;;;;;;;;5055462;28;20187;-73